sensor_id;sensor_type;location;lat;lon;timestamp;P1;durP1;ratioP1;P2;durP2;ratioP2
60919;SDS011;59039;52.108;19.942;2023-03-01T00:02:09;118.50;;;49.80;;
60919;SDS011;59039;52.108;19.942;2023-03-01T00:05:03;122.80;;;49.70;;
60919;SDS011;59039;52.108;19.942;2023-03-01T00:07:31;110.50;;;47.00;;
60919;SDS011;59039;52.108;19.942;2023-03-01T00:09:57;107.20;;;45.30;;
60919;SDS011;59039;52.108;19.942;2023-03-01T00:17:51;109.80;;;46.40;;
60919;SDS011;59039;52.108;19.942;2023-03-01T00:20:20;107.30;;;45.40;;
60919;SDS011;59039;52.108;19.942;2023-03-01T00:22:48;119.30;;;48.40;;
60919;SDS011;59039;52.108;19.942;2023-03-01T00:25:14;108.80;;;47.60;;
60919;SDS011;59039;52.108;19.942;2023-03-01T00:27:47;109.10;;;46.40;;
60919;SDS011;59039;52.108;19.942;2023-03-01T00:30:33;117.80;;;49.50;;
60919;SDS011;59039;52.108;19.942;2023-03-01T00:32:59;114.60;;;48.90;;
60919;SDS011;59039;52.108;19.942;2023-03-01T00:35:33;121.40;;;49.40;;
60919;SDS011;59039;52.108;19.942;2023-03-01T00:38:02;117.10;;;50.40;;
60919;SDS011;59039;52.108;19.942;2023-03-01T00:40:40;107.60;;;47.80;;
60919;SDS011;59039;52.108;19.942;2023-03-01T00:46:22;115.30;;;49.90;;
60919;SDS011;59039;52.108;19.942;2023-03-01T00:48:52;115.90;;;50.10;;
60919;SDS011;59039;52.108;19.942;2023-03-01T00:51:19;118.90;;;51.00;;
60919;SDS011;59039;52.108;19.942;2023-03-01T00:53:52;117.20;;;49.90;;
60919;SDS011;59039;52.108;19.942;2023-03-01T00:56:32;121.00;;;47.40;;
60919;SDS011;59039;52.108;19.942;2023-03-01T00:58:57;105.60;;;46.20;;
60919;SDS011;59039;52.108;19.942;2023-03-01T01:01:30;112.50;;;46.90;;
60919;SDS011;59039;52.108;19.942;2023-03-01T01:04:00;105.20;;;45.00;;
60919;SDS011;59039;52.108;19.942;2023-03-01T01:06:28;100.60;;;45.50;;
60919;SDS011;59039;52.108;19.942;2023-03-01T01:09:17;97.50;;;44.00;;
60919;SDS011;59039;52.108;19.942;2023-03-01T01:11:53;111.80;;;50.20;;
60919;SDS011;59039;52.108;19.942;2023-03-01T01:14:22;122.90;;;52.60;;
60919;SDS011;59039;52.108;19.942;2023-03-01T01:16:48;133.50;;;52.00;;
60919;SDS011;59039;52.108;19.942;2023-03-01T01:19:16;122.60;;;56.30;;
60919;SDS011;59039;52.108;19.942;2023-03-01T01:21:53;129.90;;;55.70;;
60919;SDS011;59039;52.108;19.942;2023-03-01T01:24:19;136.80;;;54.00;;
60919;SDS011;59039;52.108;19.942;2023-03-01T01:26:56;113.80;;;51.80;;
60919;SDS011;59039;52.108;19.942;2023-03-01T01:29:22;104.60;;;46.60;;
60919;SDS011;59039;52.108;19.942;2023-03-01T01:31:55;115.50;;;46.20;;
60919;SDS011;59039;52.108;19.942;2023-03-01T01:34:21;104.60;;;44.60;;
60919;SDS011;59039;52.108;19.942;2023-03-01T01:36:50;115.90;;;45.70;;
60919;SDS011;59039;52.108;19.942;2023-03-01T01:39:29;113.10;;;45.40;;
60919;SDS011;59039;52.108;19.942;2023-03-01T01:42:05;98.00;;;41.60;;
60919;SDS011;59039;52.108;19.942;2023-03-01T01:47:37;91.50;;;38.90;;
60919;SDS011;59039;52.108;19.942;2023-03-01T01:53:39;92.00;;;37.50;;
60919;SDS011;59039;52.108;19.942;2023-03-01T01:56:08;89.60;;;38.50;;
60919;SDS011;59039;52.108;19.942;2023-03-01T01:58:39;83.30;;;36.70;;
60919;SDS011;59039;52.108;19.942;2023-03-01T02:01:31;94.30;;;37.40;;
60919;SDS011;59039;52.108;19.942;2023-03-01T02:04:23;99.50;;;38.30;;
60919;SDS011;59039;52.108;19.942;2023-03-01T02:06:55;93.40;;;41.20;;
60919;SDS011;59039;52.108;19.942;2023-03-01T02:09:36;98.50;;;41.90;;
60919;SDS011;59039;52.108;19.942;2023-03-01T02:12:06;95.20;;;44.00;;
60919;SDS011;59039;52.108;19.942;2023-03-01T02:14:45;90.70;;;42.10;;
60919;SDS011;59039;52.108;19.942;2023-03-01T02:17:23;90.60;;;40.20;;
60919;SDS011;59039;52.108;19.942;2023-03-01T02:30:45;84.80;;;38.20;;
60919;SDS011;59039;52.108;19.942;2023-03-01T02:33:22;91.30;;;41.00;;
60919;SDS011;59039;52.108;19.942;2023-03-01T02:35:51;87.80;;;38.70;;
60919;SDS011;59039;52.108;19.942;2023-03-01T02:38:18;92.40;;;39.50;;
60919;SDS011;59039;52.108;19.942;2023-03-01T02:40:44;82.20;;;39.00;;
60919;SDS011;59039;52.108;19.942;2023-03-01T02:43:21;86.80;;;38.30;;
60919;SDS011;59039;52.108;19.942;2023-03-01T02:48:52;85.50;;;37.90;;
60919;SDS011;59039;52.108;19.942;2023-03-01T02:54:40;88.10;;;37.60;;
60919;SDS011;59039;52.108;19.942;2023-03-01T02:57:13;87.70;;;37.70;;
60919;SDS011;59039;52.108;19.942;2023-03-01T02:59:47;92.20;;;40.90;;
60919;SDS011;59039;52.108;19.942;2023-03-01T03:02:26;98.30;;;41.60;;
60919;SDS011;59039;52.108;19.942;2023-03-01T03:04:55;81.40;;;40.70;;
60919;SDS011;59039;52.108;19.942;2023-03-01T03:10:36;80.30;;;37.60;;
60919;SDS011;59039;52.108;19.942;2023-03-01T03:13:07;92.90;;;39.00;;
60919;SDS011;59039;52.108;19.942;2023-03-01T03:16:04;93.60;;;41.10;;
60919;SDS011;59039;52.108;19.942;2023-03-01T03:18:38;89.80;;;42.30;;
60919;SDS011;59039;52.108;19.942;2023-03-01T03:23:49;88.30;;;40.20;;
60919;SDS011;59039;52.108;19.942;2023-03-01T03:26:40;93.10;;;39.40;;
60919;SDS011;59039;52.108;19.942;2023-03-01T03:29:33;83.40;;;37.50;;
60919;SDS011;59039;52.108;19.942;2023-03-01T03:32:08;89.40;;;38.40;;
60919;SDS011;59039;52.108;19.942;2023-03-01T03:34:33;87.70;;;37.80;;
60919;SDS011;59039;52.108;19.942;2023-03-01T03:37:01;89.80;;;39.50;;
60919;SDS011;59039;52.108;19.942;2023-03-01T03:39:30;89.60;;;37.30;;
60919;SDS011;59039;52.108;19.942;2023-03-01T03:42:16;84.30;;;36.00;;
60919;SDS011;59039;52.108;19.942;2023-03-01T03:44:41;79.50;;;35.00;;
60919;SDS011;59039;52.108;19.942;2023-03-01T03:47:16;68.90;;;34.60;;
60919;SDS011;59039;52.108;19.942;2023-03-01T03:50:04;79.20;;;34.10;;
60919;SDS011;59039;52.108;19.942;2023-03-01T03:52:39;70.40;;;33.00;;
60919;SDS011;59039;52.108;19.942;2023-03-01T03:55:08;73.90;;;32.50;;
60919;SDS011;59039;52.108;19.942;2023-03-01T03:57:43;69.90;;;31.60;;
60919;SDS011;59039;52.108;19.942;2023-03-01T04:00:39;69.80;;;31.10;;
60919;SDS011;59039;52.108;19.942;2023-03-01T04:03:25;60.70;;;29.80;;
60919;SDS011;59039;52.108;19.942;2023-03-01T04:05:51;68.90;;;33.30;;
60919;SDS011;59039;52.108;19.942;2023-03-01T04:11:18;72.70;;;35.40;;
60919;SDS011;59039;52.108;19.942;2023-03-01T04:14:04;82.30;;;36.90;;
60919;SDS011;59039;52.108;19.942;2023-03-01T04:16:29;77.70;;;38.10;;
60919;SDS011;59039;52.108;19.942;2023-03-01T04:18:55;77.50;;;35.50;;
60919;SDS011;59039;52.108;19.942;2023-03-01T04:24:22;65.60;;;31.00;;
60919;SDS011;59039;52.108;19.942;2023-03-01T04:26:47;76.40;;;34.40;;
60919;SDS011;59039;52.108;19.942;2023-03-01T04:29:33;67.40;;;29.40;;
60919;SDS011;59039;52.108;19.942;2023-03-01T04:34:36;66.00;;;32.00;;
60919;SDS011;59039;52.108;19.942;2023-03-01T04:37:02;73.90;;;34.80;;
60919;SDS011;59039;52.108;19.942;2023-03-01T04:39:47;66.20;;;30.50;;
60919;SDS011;59039;52.108;19.942;2023-03-01T04:42:19;63.20;;;30.70;;
60919;SDS011;59039;52.108;19.942;2023-03-01T04:44:45;72.00;;;31.90;;
60919;SDS011;59039;52.108;19.942;2023-03-01T04:47:11;63.30;;;30.30;;
60919;SDS011;59039;52.108;19.942;2023-03-01T04:49:57;70.10;;;32.70;;
60919;SDS011;59039;52.108;19.942;2023-03-01T04:55:33;70.60;;;30.90;;
60919;SDS011;59039;52.108;19.942;2023-03-01T04:58:02;67.40;;;31.10;;
60919;SDS011;59039;52.108;19.942;2023-03-01T05:00:28;70.50;;;31.60;;
60919;SDS011;59039;52.108;19.942;2023-03-01T05:02:57;58.40;;;27.50;;
60919;SDS011;59039;52.108;19.942;2023-03-01T05:08:16;61.80;;;28.70;;
60919;SDS011;59039;52.108;19.942;2023-03-01T05:11:02;52.20;;;26.40;;
60919;SDS011;59039;52.108;19.942;2023-03-01T05:13:30;55.10;;;27.90;;
60919;SDS011;59039;52.108;19.942;2023-03-01T05:16:00;62.60;;;31.50;;
60919;SDS011;59039;52.108;19.942;2023-03-01T05:18:58;66.60;;;30.60;;
60919;SDS011;59039;52.108;19.942;2023-03-01T05:21:24;59.10;;;28.80;;
60919;SDS011;59039;52.108;19.942;2023-03-01T05:23:52;59.20;;;29.30;;
60919;SDS011;59039;52.108;19.942;2023-03-01T05:26:21;56.80;;;27.90;;
60919;SDS011;59039;52.108;19.942;2023-03-01T05:28:52;54.60;;;27.60;;
60919;SDS011;59039;52.108;19.942;2023-03-01T05:31:29;51.80;;;26.60;;
60919;SDS011;59039;52.108;19.942;2023-03-01T05:33:57;55.30;;;28.40;;
60919;SDS011;59039;52.108;19.942;2023-03-01T05:36:22;60.50;;;29.10;;
60919;SDS011;59039;52.108;19.942;2023-03-01T05:38:48;59.20;;;32.30;;
60919;SDS011;59039;52.108;19.942;2023-03-01T05:41:33;64.70;;;34.10;;
60919;SDS011;59039;52.108;19.942;2023-03-01T05:44:01;58.70;;;34.20;;
60919;SDS011;59039;52.108;19.942;2023-03-01T05:46:27;64.50;;;34.50;;
60919;SDS011;59039;52.108;19.942;2023-03-01T05:48:52;68.10;;;35.20;;
60919;SDS011;59039;52.108;19.942;2023-03-01T05:51:18;74.50;;;36.40;;
60919;SDS011;59039;52.108;19.942;2023-03-01T05:53:46;76.50;;;36.60;;
60919;SDS011;59039;52.108;19.942;2023-03-01T05:56:15;86.50;;;41.30;;
60919;SDS011;59039;52.108;19.942;2023-03-01T05:58:40;92.70;;;43.70;;
60919;SDS011;59039;52.108;19.942;2023-03-01T06:01:05;106.30;;;47.90;;
60919;SDS011;59039;52.108;19.942;2023-03-01T06:03:39;128.20;;;51.10;;
60919;SDS011;59039;52.108;19.942;2023-03-01T06:06:05;102.80;;;45.50;;
60919;SDS011;59039;52.108;19.942;2023-03-01T06:08:33;91.80;;;39.90;;
60919;SDS011;59039;52.108;19.942;2023-03-01T06:10:59;99.20;;;42.70;;
60919;SDS011;59039;52.108;19.942;2023-03-01T06:13:45;97.90;;;45.50;;
60919;SDS011;59039;52.108;19.942;2023-03-01T06:16:14;89.20;;;45.60;;
60919;SDS011;59039;52.108;19.942;2023-03-01T06:18:42;116.10;;;50.90;;
60919;SDS011;59039;52.108;19.942;2023-03-01T06:21:08;97.70;;;49.70;;
60919;SDS011;59039;52.108;19.942;2023-03-01T06:23:54;102.70;;;47.30;;
60919;SDS011;59039;52.108;19.942;2023-03-01T06:26:19;84.00;;;38.40;;
60919;SDS011;59039;52.108;19.942;2023-03-01T06:28:48;76.40;;;38.00;;
60919;SDS011;59039;52.108;19.942;2023-03-01T06:34:02;62.00;;;33.40;;
60919;SDS011;59039;52.108;19.942;2023-03-01T06:36:27;76.70;;;33.50;;
60919;SDS011;59039;52.108;19.942;2023-03-01T06:39:00;64.60;;;29.60;;
60919;SDS011;59039;52.108;19.942;2023-03-01T06:41:26;57.50;;;28.90;;
60919;SDS011;59039;52.108;19.942;2023-03-01T06:43:51;65.90;;;32.80;;
60919;SDS011;59039;52.108;19.942;2023-03-01T06:46:17;76.10;;;35.00;;
60919;SDS011;59039;52.108;19.942;2023-03-01T06:49:02;75.70;;;35.70;;
60919;SDS011;59039;52.108;19.942;2023-03-01T06:51:33;77.30;;;37.20;;
60919;SDS011;59039;52.108;19.942;2023-03-01T06:54:04;87.50;;;40.70;;
60919;SDS011;59039;52.108;19.942;2023-03-01T06:56:30;68.40;;;34.00;;
60919;SDS011;59039;52.108;19.942;2023-03-01T06:58:59;48.10;;;25.80;;
60919;SDS011;59039;52.108;19.942;2023-03-01T07:01:25;60.50;;;30.30;;
60919;SDS011;59039;52.108;19.942;2023-03-01T07:03:50;60.50;;;28.40;;
60919;SDS011;59039;52.108;19.942;2023-03-01T07:06:16;58.40;;;28.90;;
60919;SDS011;59039;52.108;19.942;2023-03-01T07:08:41;61.30;;;27.70;;
60919;SDS011;59039;52.108;19.942;2023-03-01T07:11:07;64.30;;;32.30;;
60919;SDS011;59039;52.108;19.942;2023-03-01T07:13:32;68.80;;;29.60;;
60919;SDS011;59039;52.108;19.942;2023-03-01T07:16:19;56.80;;;27.30;;
60919;SDS011;59039;52.108;19.942;2023-03-01T07:18:53;52.30;;;25.20;;
60919;SDS011;59039;52.108;19.942;2023-03-01T07:21:30;46.90;;;23.90;;
60919;SDS011;59039;52.108;19.942;2023-03-01T07:23:56;46.90;;;23.30;;
60919;SDS011;59039;52.108;19.942;2023-03-01T07:26:42;44.80;;;24.10;;
60919;SDS011;59039;52.108;19.942;2023-03-01T07:29:10;57.30;;;26.60;;
60919;SDS011;59039;52.108;19.942;2023-03-01T07:31:44;57.90;;;27.20;;
60919;SDS011;59039;52.108;19.942;2023-03-01T07:34:10;44.50;;;22.70;;
60919;SDS011;59039;52.108;19.942;2023-03-01T07:36:55;42.90;;;22.90;;
60919;SDS011;59039;52.108;19.942;2023-03-01T07:39:21;52.70;;;25.00;;
60919;SDS011;59039;52.108;19.942;2023-03-01T07:41:46;44.70;;;24.00;;
60919;SDS011;59039;52.108;19.942;2023-03-01T07:47:18;54.90;;;27.20;;
60919;SDS011;59039;52.108;19.942;2023-03-01T07:52:52;45.00;;;23.10;;
60919;SDS011;59039;52.108;19.942;2023-03-01T07:55:18;54.20;;;28.20;;
60919;SDS011;59039;52.108;19.942;2023-03-01T07:57:43;43.40;;;22.00;;
60919;SDS011;59039;52.108;19.942;2023-03-01T08:00:19;40.50;;;21.20;;
60919;SDS011;59039;52.108;19.942;2023-03-01T08:02:45;49.20;;;24.10;;
60919;SDS011;59039;52.108;19.942;2023-03-01T08:05:22;50.90;;;25.20;;
60919;SDS011;59039;52.108;19.942;2023-03-01T08:07:47;47.10;;;23.60;;
60919;SDS011;59039;52.108;19.942;2023-03-01T08:10:13;66.50;;;31.60;;
60919;SDS011;59039;52.108;19.942;2023-03-01T08:12:38;68.40;;;33.40;;
60919;SDS011;59039;52.108;19.942;2023-03-01T08:15:04;62.70;;;28.50;;
60919;SDS011;59039;52.108;19.942;2023-03-01T08:17:35;50.10;;;26.00;;
60919;SDS011;59039;52.108;19.942;2023-03-01T08:20:01;57.70;;;27.00;;
60919;SDS011;59039;52.108;19.942;2023-03-01T08:22:26;54.80;;;28.30;;
60919;SDS011;59039;52.108;19.942;2023-03-01T08:24:52;60.20;;;28.50;;
60919;SDS011;59039;52.108;19.942;2023-03-01T08:27:20;47.20;;;23.30;;
60919;SDS011;59039;52.108;19.942;2023-03-01T08:29:46;48.20;;;22.20;;
60919;SDS011;59039;52.108;19.942;2023-03-01T08:32:11;58.90;;;30.30;;
60919;SDS011;59039;52.108;19.942;2023-03-01T08:34:37;59.60;;;27.30;;
60919;SDS011;59039;52.108;19.942;2023-03-01T08:37:10;47.70;;;22.60;;
60919;SDS011;59039;52.108;19.942;2023-03-01T08:39:38;46.80;;;22.40;;
60919;SDS011;59039;52.108;19.942;2023-03-01T08:44:49;49.00;;;19.80;;
60919;SDS011;59039;52.108;19.942;2023-03-01T08:47:14;44.70;;;20.60;;
60919;SDS011;59039;52.108;19.942;2023-03-01T08:49:40;46.20;;;20.10;;
60919;SDS011;59039;52.108;19.942;2023-03-01T08:52:26;42.00;;;20.00;;
60919;SDS011;59039;52.108;19.942;2023-03-01T08:54:51;45.60;;;20.90;;
60919;SDS011;59039;52.108;19.942;2023-03-01T08:57:17;38.10;;;18.60;;
60919;SDS011;59039;52.108;19.942;2023-03-01T08:59:45;36.80;;;19.00;;
60919;SDS011;59039;52.108;19.942;2023-03-01T09:02:19;41.60;;;18.70;;
60919;SDS011;59039;52.108;19.942;2023-03-01T09:04:44;39.70;;;18.60;;
60919;SDS011;59039;52.108;19.942;2023-03-01T09:09:45;40.70;;;18.90;;
60919;SDS011;59039;52.108;19.942;2023-03-01T09:12:10;43.60;;;20.20;;
60919;SDS011;59039;52.108;19.942;2023-03-01T09:14:36;36.50;;;18.00;;
60919;SDS011;59039;52.108;19.942;2023-03-01T09:19:40;37.50;;;17.90;;
60919;SDS011;59039;52.108;19.942;2023-03-01T09:22:13;40.60;;;19.90;;
60919;SDS011;59039;52.108;19.942;2023-03-01T09:24:38;44.50;;;20.60;;
60919;SDS011;59039;52.108;19.942;2023-03-01T09:27:04;48.10;;;20.80;;
60919;SDS011;59039;52.108;19.942;2023-03-01T09:29:29;50.80;;;21.60;;
60919;SDS011;59039;52.108;19.942;2023-03-01T09:31:55;47.30;;;21.00;;
60919;SDS011;59039;52.108;19.942;2023-03-01T09:34:20;55.40;;;22.60;;
60919;SDS011;59039;52.108;19.942;2023-03-01T09:36:46;48.60;;;22.20;;
60919;SDS011;59039;52.108;19.942;2023-03-01T09:42:11;49.40;;;19.00;;
60919;SDS011;59039;52.108;19.942;2023-03-01T09:44:47;52.00;;;20.50;;
60919;SDS011;59039;52.108;19.942;2023-03-01T09:47:26;40.30;;;17.00;;
60919;SDS011;59039;52.108;19.942;2023-03-01T09:50:14;45.60;;;19.70;;
60919;SDS011;59039;52.108;19.942;2023-03-01T09:52:43;48.60;;;20.20;;
60919;SDS011;59039;52.108;19.942;2023-03-01T09:55:16;43.00;;;18.30;;
60919;SDS011;59039;52.108;19.942;2023-03-01T10:00:30;42.00;;;18.50;;
60919;SDS011;59039;52.108;19.942;2023-03-01T10:08:17;36.60;;;15.70;;
60919;SDS011;59039;52.108;19.942;2023-03-01T10:10:47;45.40;;;17.40;;
60919;SDS011;59039;52.108;19.942;2023-03-01T10:13:17;42.20;;;18.50;;
60919;SDS011;59039;52.108;19.942;2023-03-01T10:15:50;42.10;;;18.40;;
60919;SDS011;59039;52.108;19.942;2023-03-01T10:18:29;39.60;;;17.00;;
60919;SDS011;59039;52.108;19.942;2023-03-01T10:21:17;36.30;;;16.90;;
60919;SDS011;59039;52.108;19.942;2023-03-01T10:23:45;42.00;;;18.00;;
60919;SDS011;59039;52.108;19.942;2023-03-01T10:29:17;36.90;;;17.70;;
60919;SDS011;59039;52.108;19.942;2023-03-01T10:31:56;47.20;;;18.60;;
60919;SDS011;59039;52.108;19.942;2023-03-01T10:34:35;35.60;;;16.00;;
60919;SDS011;59039;52.108;19.942;2023-03-01T10:40:03;39.20;;;16.80;;
60919;SDS011;59039;52.108;19.942;2023-03-01T10:42:46;30.70;;;14.30;;
60919;SDS011;59039;52.108;19.942;2023-03-01T10:48:13;33.00;;;14.00;;
60919;SDS011;59039;52.108;19.942;2023-03-01T10:51:10;32.20;;;14.80;;
60919;SDS011;59039;52.108;19.942;2023-03-01T10:53:49;35.00;;;14.90;;
60919;SDS011;59039;52.108;19.942;2023-03-01T10:56:18;36.20;;;14.40;;
60919;SDS011;59039;52.108;19.942;2023-03-01T10:58:57;30.80;;;13.60;;
60919;SDS011;59039;52.108;19.942;2023-03-01T11:01:35;36.70;;;16.20;;
60919;SDS011;59039;52.108;19.942;2023-03-01T11:06:57;26.60;;;12.40;;
60919;SDS011;59039;52.108;19.942;2023-03-01T11:09:25;29.40;;;13.30;;
60919;SDS011;59039;52.108;19.942;2023-03-01T11:11:57;31.90;;;14.70;;
60919;SDS011;59039;52.108;19.942;2023-03-01T11:14:27;36.60;;;14.80;;
60919;SDS011;59039;52.108;19.942;2023-03-01T11:20:05;27.10;;;12.90;;
60919;SDS011;59039;52.108;19.942;2023-03-01T11:27:54;32.20;;;13.70;;
60919;SDS011;59039;52.108;19.942;2023-03-01T11:30:23;35.20;;;15.20;;
60919;SDS011;59039;52.108;19.942;2023-03-01T11:35:34;33.50;;;14.90;;
60919;SDS011;59039;52.108;19.942;2023-03-01T11:40:42;26.20;;;12.30;;
60919;SDS011;59039;52.108;19.942;2023-03-01T11:45:47;24.00;;;11.40;;
60919;SDS011;59039;52.108;19.942;2023-03-01T11:48:29;27.10;;;13.00;;
60919;SDS011;59039;52.108;19.942;2023-03-01T11:51:07;26.90;;;12.30;;
60919;SDS011;59039;52.108;19.942;2023-03-01T12:10:22;26.40;;;11.90;;
60919;SDS011;59039;52.108;19.942;2023-03-01T12:13:12;25.60;;;12.70;;
60919;SDS011;59039;52.108;19.942;2023-03-01T12:16:32;21.70;;;10.30;;
60919;SDS011;59039;52.108;19.942;2023-03-01T12:19:15;22.80;;;11.50;;
60919;SDS011;59039;52.108;19.942;2023-03-01T12:22:01;25.70;;;12.40;;
60919;SDS011;59039;52.108;19.942;2023-03-01T12:24:41;23.50;;;10.50;;
60919;SDS011;59039;52.108;19.942;2023-03-01T12:50:44;19.00;;;9.10;;
60919;SDS011;59039;52.108;19.942;2023-03-01T12:53:23;17.60;;;8.30;;
60919;SDS011;59039;52.108;19.942;2023-03-01T12:55:49;16.60;;;8.60;;
60919;SDS011;59039;52.108;19.942;2023-03-01T13:01:24;17.00;;;8.50;;
60919;SDS011;59039;52.108;19.942;2023-03-01T13:04:15;20.50;;;8.90;;
60919;SDS011;59039;52.108;19.942;2023-03-01T13:15:59;20.30;;;9.40;;
60919;SDS011;59039;52.108;19.942;2023-03-01T13:18:44;17.80;;;9.00;;
60919;SDS011;59039;52.108;19.942;2023-03-01T13:21:28;18.50;;;9.20;;
60919;SDS011;59039;52.108;19.942;2023-03-01T13:23:55;18.30;;;9.90;;
60919;SDS011;59039;52.108;19.942;2023-03-01T13:26:29;21.50;;;9.40;;
60919;SDS011;59039;52.108;19.942;2023-03-01T13:28:55;22.90;;;10.00;;
60919;SDS011;59039;52.108;19.942;2023-03-01T13:38:59;15.00;;;8.50;;
60919;SDS011;59039;52.108;19.942;2023-03-01T13:44:46;20.30;;;9.70;;
60919;SDS011;59039;52.108;19.942;2023-03-01T13:47:16;19.60;;;11.00;;
60919;SDS011;59039;52.108;19.942;2023-03-01T13:53:02;18.90;;;10.80;;
60919;SDS011;59039;52.108;19.942;2023-03-01T13:58:44;22.10;;;11.20;;
60919;SDS011;59039;52.108;19.942;2023-03-01T14:01:24;22.50;;;10.50;;
60919;SDS011;59039;52.108;19.942;2023-03-01T14:03:56;21.20;;;10.10;;
60919;SDS011;59039;52.108;19.942;2023-03-01T14:06:26;22.70;;;11.30;;
60919;SDS011;59039;52.108;19.942;2023-03-01T14:09:03;17.90;;;10.40;;
60919;SDS011;59039;52.108;19.942;2023-03-01T14:11:42;18.20;;;9.90;;
60919;SDS011;59039;52.108;19.942;2023-03-01T14:17:20;28.10;;;13.50;;
60919;SDS011;59039;52.108;19.942;2023-03-01T14:19:58;27.80;;;13.60;;
60919;SDS011;59039;52.108;19.942;2023-03-01T14:22:44;23.60;;;12.90;;
60919;SDS011;59039;52.108;19.942;2023-03-01T14:25:27;28.00;;;13.70;;
60919;SDS011;59039;52.108;19.942;2023-03-01T14:30:31;42.90;;;21.60;;
60919;SDS011;59039;52.108;19.942;2023-03-01T14:33:06;32.60;;;13.90;;
60919;SDS011;59039;52.108;19.942;2023-03-01T14:36:06;23.40;;;12.10;;
60919;SDS011;59039;52.108;19.942;2023-03-01T14:38:47;21.50;;;11.80;;
60919;SDS011;59039;52.108;19.942;2023-03-01T14:41:17;42.60;;;20.80;;
60919;SDS011;59039;52.108;19.942;2023-03-01T14:43:45;50.00;;;22.80;;
60919;SDS011;59039;52.108;19.942;2023-03-01T14:46:25;36.60;;;19.30;;
60919;SDS011;59039;52.108;19.942;2023-03-01T14:48:56;34.80;;;14.80;;
60919;SDS011;59039;52.108;19.942;2023-03-01T14:51:36;23.70;;;12.50;;
60919;SDS011;59039;52.108;19.942;2023-03-01T14:54:20;30.00;;;15.50;;
60919;SDS011;59039;52.108;19.942;2023-03-01T14:56:51;29.10;;;14.20;;
60919;SDS011;59039;52.108;19.942;2023-03-01T14:59:26;30.90;;;16.90;;
60919;SDS011;59039;52.108;19.942;2023-03-01T15:01:56;23.20;;;13.30;;
60919;SDS011;59039;52.108;19.942;2023-03-01T15:04:26;17.90;;;10.80;;
60919;SDS011;59039;52.108;19.942;2023-03-01T15:06:55;23.80;;;10.60;;
60919;SDS011;59039;52.108;19.942;2023-03-01T15:09:31;24.50;;;12.90;;
60919;SDS011;59039;52.108;19.942;2023-03-01T15:11:59;28.10;;;13.10;;
60919;SDS011;59039;52.108;19.942;2023-03-01T15:14:28;29.80;;;16.40;;
60919;SDS011;59039;52.108;19.942;2023-03-01T15:17:26;29.10;;;14.30;;
60919;SDS011;59039;52.108;19.942;2023-03-01T15:20:00;27.40;;;14.10;;
60919;SDS011;59039;52.108;19.942;2023-03-01T15:22:49;19.90;;;11.10;;
60919;SDS011;59039;52.108;19.942;2023-03-01T15:25:16;30.70;;;16.60;;
60919;SDS011;59039;52.108;19.942;2023-03-01T15:27:46;36.80;;;18.30;;
60919;SDS011;59039;52.108;19.942;2023-03-01T15:30:17;37.00;;;19.30;;
60919;SDS011;59039;52.108;19.942;2023-03-01T15:32:46;36.80;;;20.20;;
60919;SDS011;59039;52.108;19.942;2023-03-01T15:41:19;56.70;;;24.10;;
60919;SDS011;59039;52.108;19.942;2023-03-01T15:43:56;64.00;;;27.90;;
60919;SDS011;59039;52.108;19.942;2023-03-01T15:46:25;66.30;;;28.40;;
60919;SDS011;59039;52.108;19.942;2023-03-01T15:52:03;48.40;;;23.20;;
60919;SDS011;59039;52.108;19.942;2023-03-01T15:54:30;73.80;;;31.40;;
60919;SDS011;59039;52.108;19.942;2023-03-01T15:56:58;69.00;;;30.40;;
60919;SDS011;59039;52.108;19.942;2023-03-01T15:59:24;81.90;;;35.00;;
60919;SDS011;59039;52.108;19.942;2023-03-01T16:04:22;96.70;;;40.40;;
60919;SDS011;59039;52.108;19.942;2023-03-01T16:06:48;97.50;;;41.90;;
60919;SDS011;59039;52.108;19.942;2023-03-01T16:09:14;95.80;;;44.50;;
60919;SDS011;59039;52.108;19.942;2023-03-01T16:11:40;97.80;;;46.20;;
60919;SDS011;59039;52.108;19.942;2023-03-01T16:14:08;93.30;;;46.90;;
60919;SDS011;59039;52.108;19.942;2023-03-01T16:16:34;84.70;;;42.70;;
60919;SDS011;59039;52.108;19.942;2023-03-01T16:18:59;81.50;;;41.20;;
60919;SDS011;59039;52.108;19.942;2023-03-01T16:21:25;80.50;;;41.00;;
60919;SDS011;59039;52.108;19.942;2023-03-01T16:24:02;68.20;;;36.70;;
60919;SDS011;59039;52.108;19.942;2023-03-01T16:26:36;73.60;;;37.50;;
60919;SDS011;59039;52.108;19.942;2023-03-01T16:29:02;80.60;;;42.20;;
60919;SDS011;59039;52.108;19.942;2023-03-01T16:31:28;84.50;;;41.30;;
60919;SDS011;59039;52.108;19.942;2023-03-01T16:33:57;77.90;;;40.10;;
60919;SDS011;59039;52.108;19.942;2023-03-01T16:36:48;71.60;;;38.90;;
60919;SDS011;59039;52.108;19.942;2023-03-01T16:39:14;77.70;;;40.60;;
60919;SDS011;59039;52.108;19.942;2023-03-01T16:41:39;87.60;;;44.60;;
60919;SDS011;59039;52.108;19.942;2023-03-01T16:44:05;87.10;;;45.20;;
60919;SDS011;59039;52.108;19.942;2023-03-01T16:46:30;88.20;;;46.50;;
60919;SDS011;59039;52.108;19.942;2023-03-01T16:48:55;95.10;;;49.20;;
60919;SDS011;59039;52.108;19.942;2023-03-01T16:51:22;98.80;;;46.60;;
60919;SDS011;59039;52.108;19.942;2023-03-01T16:53:50;85.40;;;42.50;;
60919;SDS011;59039;52.108;19.942;2023-03-01T16:56:16;82.80;;;40.10;;
60919;SDS011;59039;52.108;19.942;2023-03-01T16:58:45;75.60;;;39.90;;
60919;SDS011;59039;52.108;19.942;2023-03-01T17:01:14;86.60;;;41.10;;
60919;SDS011;59039;52.108;19.942;2023-03-01T17:03:42;78.60;;;38.90;;
60919;SDS011;59039;52.108;19.942;2023-03-01T17:06:12;86.70;;;41.20;;
60919;SDS011;59039;52.108;19.942;2023-03-01T17:08:39;85.60;;;41.00;;
60919;SDS011;59039;52.108;19.942;2023-03-01T17:11:09;85.80;;;40.90;;
60919;SDS011;59039;52.108;19.942;2023-03-01T17:13:42;110.70;;;55.60;;
60919;SDS011;59039;52.108;19.942;2023-03-01T17:16:30;125.00;;;59.70;;
60919;SDS011;59039;52.108;19.942;2023-03-01T17:19:01;132.90;;;64.90;;
60919;SDS011;59039;52.108;19.942;2023-03-01T17:21:32;142.70;;;63.20;;
60919;SDS011;59039;52.108;19.942;2023-03-01T17:23:57;147.70;;;64.40;;
60919;SDS011;59039;52.108;19.942;2023-03-01T17:26:23;151.30;;;65.30;;
60919;SDS011;59039;52.108;19.942;2023-03-01T17:28:51;132.30;;;61.80;;
60919;SDS011;59039;52.108;19.942;2023-03-01T17:31:17;130.60;;;61.50;;
60919;SDS011;59039;52.108;19.942;2023-03-01T17:33:46;129.50;;;59.20;;
60919;SDS011;59039;52.108;19.942;2023-03-01T17:36:12;115.80;;;54.40;;
60919;SDS011;59039;52.108;19.942;2023-03-01T17:38:37;116.10;;;54.30;;
60919;SDS011;59039;52.108;19.942;2023-03-01T17:41:03;102.50;;;52.00;;
60919;SDS011;59039;52.108;19.942;2023-03-01T17:43:29;101.40;;;50.50;;
60919;SDS011;59039;52.108;19.942;2023-03-01T17:45:55;98.10;;;49.90;;
60919;SDS011;59039;52.108;19.942;2023-03-01T17:48:21;98.20;;;47.70;;
60919;SDS011;59039;52.108;19.942;2023-03-01T17:50:46;88.40;;;46.60;;
60919;SDS011;59039;52.108;19.942;2023-03-01T17:53:12;90.80;;;46.30;;